Time;durP1;ratioP1;P1;durP2;ratioP2;P2;SDS_P1;SDS_P2;PMS_P1;PMS_P2;Temp;Humidity;BMP_temperature;BMP_pressure;BME280_temperature;BME280_humidity;BME280_pressure;Samples;Min_cycle;Max_cycle;Signal;HPM_P1;HPM_P2
2021/09/27 00:01:08;;;;;;;6.63;4.57;;;;;;;13.63;95.11;97751.19;5015084;28;20029;-75
2021/09/27 00:03:34;;;;;;;6.30;4.35;;;;;;;13.34;95.05;97719.16;4997237;28;20132;-75
2021/09/27 00:06:01;;;;;;;6.72;4.85;;;;;;;13.51;94.70;97748.38;5013877;28;20597;-76
2021/09/27 00:08:27;;;;;;;9.15;4.53;;;;;;;13.38;95.60;97755.59;5014818;28;20025;-76
2021/09/27 00:11:03;;;;;;;7.82;4.53;;;;;;;13.42;95.81;97773.22;5015094;28;20156;-76
2021/09/27 00:13:32;;;;;;;6.18;4.10;;;;;;;13.32;96.19;97766.75;4997159;28;20501;-75
2021/09/27 00:15:58;;;;;;;6.95;4.80;;;;;;;13.14;97.36;97741.16;4997565;28;20441;-76
2021/09/27 00:18:24;;;;;;;12.13;4.88;;;;;;;13.21;97.20;97738.94;5001572;28;20031;-76
2021/09/27 00:20:57;;;;;;;7.88;4.90;;;;;;;12.92;98.01;97703.31;4995901;28;20402;-76
2021/09/27 00:23:23;;;;;;;6.07;4.68;;;;;;;12.94;97.98;97694.19;4995787;28;20034;-77
2021/09/27 00:25:49;;;;;;;8.73;5.25;;;;;;;13.36;97.47;97751.28;5009271;28;20027;-77
2021/09/27 00:28:15;;;;;;;10.35;4.93;;;;;;;13.46;95.92;97747.88;4995004;28;20033;-76
2021/09/27 00:30:41;;;;;;;9.73;4.80;;;;;;;13.32;96.41;97745.25;4993764;28;20486;-76
2021/09/27 00:33:07;;;;;;;9.23;5.15;;;;;;;13.27;96.97;97750.09;4995077;28;20065;-76
2021/09/27 00:35:36;;;;;;;7.43;4.60;;;;;;;13.28;97.76;97745.59;5009594;28;20037;-77
2021/09/27 00:38:02;;;;;;;10.23;4.68;;;;;;;13.20;97.65;97737.19;5010268;28;20379;-76
2021/09/27 00:40:31;;;;;;;7.47;4.80;;;;;;;13.32;96.92;97756.00;4994778;28;20026;-76
2021/09/27 00:42:58;;;;;;;8.50;4.57;;;;;;;13.23;97.19;97751.28;5009901;28;20034;-77
2021/09/27 00:45:28;;;;;;;8.82;4.65;;;;;;;13.17;97.75;97756.22;4994618;28;20113;-76
2021/09/27 00:47:54;;;;;;;6.05;4.97;;;;;;;13.07;97.87;97762.19;4994929;28;20054;-76
2021/09/27 00:50:23;;;;;;;9.57;4.90;;;;;;;12.93;98.69;97747.97;5009720;28;20101;-76
2021/09/27 00:52:49;;;;;;;6.85;5.28;;;;;;;12.87;99.04;97726.94;4994949;28;20037;-76
2021/09/27 00:55:18;;;;;;;10.82;5.05;;;;;;;13.07;98.56;97748.75;5009875;28;20034;-76
2021/09/27 00:57:44;;;;;;;12.18;5.10;;;;;;;12.86;98.11;97741.31;4993603;28;20413;-77
2021/09/27 01:00:13;;;;;;;6.15;4.82;;;;;;;12.78;98.13;97725.72;4994935;28;20027;-77
2021/09/27 01:02:38;;;;;;;6.88;4.78;;;;;;;12.87;99.05;97748.41;4993079;28;20088;-76
2021/09/27 01:05:08;;;;;;;8.35;4.78;;;;;;;12.92;99.55;97740.91;4994964;28;20522;-76
2021/09/27 01:07:40;;;;;;;9.02;5.35;;;;;;;12.83;100.00;97730.78;4994049;28;20383;-76
2021/09/27 01:10:10;;;;;;;16.05;4.95;;;;;;;12.80;100.00;97725.63;4993504;28;20033;-76
2021/09/27 01:13:10;;;;;;;10.52;5.22;;;;;;;12.82;99.85;97729.06;4993831;28;20469;-76
2021/09/27 01:16:04;;;;;;;9.63;5.10;;;;;;;12.71;100.00;97726.25;4980832;28;20040;-76
2021/09/27 01:19:40;;;;;;;6.78;5.18;;;;;;;12.69;100.00;97730.84;4993962;28;20026;-76
2021/09/27 01:22:31;;;;;;;7.43;5.05;;;;;;;12.60;100.00;97704.66;4904581;29;20481;-76
2021/09/27 01:25:14;;;;;;;8.65;5.20;;;;;;;12.70;100.00;97720.03;4915865;29;20028;-76
2021/09/27 01:28:04;;;;;;;10.73;5.55;;;;;;;12.66;100.00;97723.00;4974933;28;20049;-76
2021/09/27 01:30:45;;;;;;;7.03;5.47;;;;;;;12.70;100.00;97733.47;4994716;28;20053;-77
2021/09/27 01:33:18;;;;;;;6.90;5.07;;;;;;;12.72;100.00;97730.66;4995148;28;20023;-77
2021/09/27 01:36:06;;;;;;;8.68;5.60;;;;;;;12.71;100.00;97727.09;4994276;28;20109;-76
2021/09/27 01:38:55;;;;;;;8.65;5.63;;;;;;;12.40;100.00;97688.06;4994318;28;20124;-76
2021/09/27 01:41:28;;;;;;;7.38;5.10;;;;;;;12.63;100.00;97720.53;4996401;28;20486;-76
2021/09/27 01:44:00;;;;;;;9.85;5.57;;;;;;;12.46;100.00;97697.50;4994030;28;20092;-76
2021/09/27 01:46:33;;;;;;;9.83;5.30;;;;;;;12.64;100.00;97727.63;4994398;28;20065;-76
2021/09/27 01:49:06;;;;;;;9.40;5.30;;;;;;;12.62;100.00;97724.19;4994473;28;20414;-77
2021/09/27 01:51:44;;;;;;;;;;;;;;;12.52;100.00;97716.75;4994293;28;20054;-77
2021/09/27 01:54:36;;;;;;;9.75;6.13;;;;;;;12.49;100.00;97708.03;4993070;28;19916;-76
2021/09/27 01:57:25;;;;;;;9.17;4.97;;;;;;;12.41;100.00;97687.09;4993870;28;20026;-77
2021/09/27 02:00:26;;;;;;;9.98;5.35;;;;;;;12.53;100.00;97698.81;4993996;28;20673;-76
2021/09/27 02:03:16;;;;;;;6.95;5.13;;;;;;;12.41;100.00;97681.75;4988315;28;20492;-76
2021/09/27 02:06:11;;;;;;;10.15;5.13;;;;;;;12.60;100.00;97708.19;5011336;28;20030;-76
2021/09/27 02:09:02;;;;;;;7.53;5.25;;;;;;;12.69;100.00;97709.38;4991371;28;20099;-76
2021/09/27 02:11:37;;;;;;;6.38;5.10;;;;;;;12.62;100.00;97708.06;4994332;28;20468;-77
2021/09/27 02:14:06;;;;;;;8.95;5.18;;;;;;;12.67;100.00;97711.34;4993103;28;20015;-76
2021/09/27 02:16:50;;;;;;;7.15;4.88;;;;;;;12.64;100.00;97708.84;4993295;28;20033;-76
2021/09/27 02:19:15;;;;;;;7.75;5.25;;;;;;;12.63;100.00;97699.06;5009042;28;20034;-76
2021/09/27 02:21:45;;;;;;;8.52;5.30;;;;;;;12.54;100.00;97703.25;4993329;28;20395;-76
2021/09/27 02:24:23;;;;;;;10.48;7.07;;;;;;;12.45;100.00;97698.50;5008644;28;20113;-76
2021/09/27 02:26:49;;;;;;;12.88;5.85;;;;;;;12.28;100.00;97699.59;4993128;28;20030;-78
2021/09/27 02:29:16;;;;;;;11.73;5.57;;;;;;;12.43;100.00;97725.41;5008985;28;20427;-77
2021/09/27 02:32:03;;;;;;;14.05;6.32;;;;;;;12.46;100.00;97727.03;4991785;28;20022;-77
2021/09/27 02:34:47;;;;;;;15.50;6.55;;;;;;;12.42;100.00;97726.41;4992055;28;20029;-76
2021/09/27 02:37:34;;;;;;;10.80;6.18;;;;;;;12.37;100.00;97728.50;4993299;28;20057;-77
2021/09/27 02:40:12;;;;;;;12.18;5.57;;;;;;;12.36;100.00;97725.94;4991397;28;20406;-77
2021/09/27 02:42:59;;;;;;;14.18;5.57;;;;;;;12.30;100.00;97729.03;5007726;28;20084;-77
2021/09/27 02:45:27;;;;;;;15.48;6.80;;;;;;;12.13;100.00;97729.25;4992287;28;20029;-76
2021/09/27 02:48:02;;;;;;;12.60;5.68;;;;;;;11.96;100.00;97695.50;4991476;28;20120;-77
2021/09/27 02:50:30;;;;;;;15.80;6.20;;;;;;;12.13;100.00;97729.25;4998158;28;20041;-76
2021/09/27 02:52:57;;;;;;;11.38;5.80;;;;;;;12.06;100.00;97723.41;4998972;28;20030;-77
2021/09/27 02:55:49;;;;;;;13.70;5.85;;;;;;;11.92;100.00;97704.72;4999179;28;20026;-76
2021/09/27 02:58:55;;;;;;;24.50;8.70;;;;;;;11.98;100.00;97708.81;4991959;28;20038;-77
2021/09/27 03:01:48;;;;;;;11.85;6.07;;;;;;;11.99;100.00;97707.84;4997049;28;20037;-76
2021/09/27 03:04:21;;;;;;;;;;;;;;;11.98;100.00;97709.66;5014424;28;20084;-76
2021/09/27 03:06:53;;;;;;;12.05;6.72;;;;;;;11.93;100.00;97714.47;4998133;28;20041;-76
2021/09/27 03:09:42;;;;;;;17.65;7.32;;;;;;;11.93;100.00;97718.00;4998547;28;20409;-76
2021/09/27 03:12:31;;;;;;;14.05;6.80;;;;;;;11.94;100.00;97717.03;4981738;28;20525;-77
2021/09/27 03:15:16;;;;;;;10.93;6.40;;;;;;;11.95;100.00;97720.59;4997729;28;20019;-76
2021/09/27 03:17:49;;;;;;;10.68;7.05;;;;;;;11.98;100.00;97728.44;4998173;28;20032;-76
2021/09/27 03:20:36;;;;;;;13.50;6.70;;;;;;;11.98;100.00;97725.75;4997618;28;20112;-76
2021/09/27 03:23:27;;;;;;;12.95;7.28;;;;;;;11.70;100.00;97694.50;4999268;28;20045;-77
2021/09/27 03:26:05;;;;;;;17.38;6.88;;;;;;;11.91;100.00;97725.28;4999290;28;20505;-77
2021/09/27 03:29:07;;;;;;;19.10;7.10;;;;;;;11.92;100.00;97729.69;4998756;28;20172;-76
2021/09/27 03:31:36;;;;;;;18.85;6.55;;;;;;;11.94;100.00;97733.13;4998661;28;20118;-76
2021/09/27 03:38:12;;;;;;;18.88;7.38;;;;;;;11.88;100.00;97727.28;5014383;28;20053;-76
2021/09/27 03:41:15;;;;;;;19.42;7.13;;;;;;;11.65;100.00;97701.97;4975974;28;20524;-76
2021/09/27 03:43:59;;;;;;;10.93;6.57;;;;;;;11.86;100.00;97731.91;5019024;28;20034;-75
2021/09/27 03:46:43;;;;;;;17.88;6.95;;;;;;;11.83;100.00;97721.38;5016817;28;20029;-75
2021/09/27 03:49:19;;;;;;;22.17;7.63;;;;;;;11.77;100.00;97716.41;5018553;28;20053;-76
2021/09/27 03:51:51;;;;;;;17.08;7.60;;;;;;;11.71;100.00;97716.81;5000977;28;20080;-77
2021/09/27 03:54:22;;;;;;;20.58;8.48;;;;;;;11.73;100.00;97721.09;5018458;28;20029;-76
2021/09/27 03:56:55;;;;;;;25.60;8.38;;;;;;;11.67;100.00;97710.75;5000807;28;20054;-76
2021/09/27 03:59:32;;;;;;;14.57;8.32;;;;;;;11.40;100.00;97681.22;5017878;28;20409;-77
2021/09/27 04:02:11;;;;;;;23.17;8.82;;;;;;;11.48;100.00;97694.09;5015058;28;20036;-77
2021/09/27 04:04:58;;;;;;;16.92;8.40;;;;;;;11.68;100.00;97716.97;5015764;28;20026;-81
2021/09/27 04:07:29;;;;;;;15.18;7.63;;;;;;;11.60;100.00;97698.69;5016212;28;20409;-77
2021/09/27 04:10:21;;;;;;;21.75;7.35;;;;;;;11.64;100.00;97696.69;5019742;28;20018;-76
2021/09/27 04:13:09;;;;;;;11.07;6.85;;;;;;;11.68;100.00;97695.53;5001956;28;20026;-76
2021/09/27 04:15:54;;;;;;;14.40;7.10;;;;;;;11.63;100.00;97686.94;5015262;28;20116;-76
2021/09/27 04:18:29;;;;;;;11.38;6.15;;;;;;;11.46;100.00;97652.31;5015275;28;20409;-77
2021/09/27 04:20:57;;;;;;;13.27;7.35;;;;;;;11.73;100.00;97686.28;5015986;28;20037;-77
2021/09/27 04:23:31;;;;;;;10.10;7.78;;;;;;;11.77;100.00;97686.94;5017391;28;20185;-76
2021/09/27 04:26:28;;;;;;;15.05;7.43;;;;;;;11.71;100.00;97688.19;5016554;28;20033;-77
2021/09/27 04:29:23;;;;;;;14.00;8.73;;;;;;;11.49;100.00;97652.97;5021622;28;20512;-76
2021/09/27 04:32:09;;;;;;;23.83;8.32;;;;;;;11.65;100.00;97675.16;5015828;28;20052;-76
2021/09/27 04:34:56;;;;;;;23.50;8.70;;;;;;;11.81;100.00;97680.44;4997768;28;20030;-77
2021/09/27 04:37:22;;;;;;;20.15;9.35;;;;;;;11.89;100.00;97691.50;5014201;28;20525;-83
2021/09/27 04:39:48;;;;;;;18.13;9.10;;;;;;;11.85;100.00;97692.66;5011445;28;20031;-76
2021/09/27 04:42:34;;;;;;;35.67;9.80;;;;;;;11.79;100.00;97682.31;4980597;28;20429;-77
2021/09/27 04:45:10;;;;;;;18.35;10.07;;;;;;;11.94;100.00;97682.19;4995130;28;20513;-85
2021/09/27 04:47:47;;;;;;;24.85;9.38;;;;;;;12.06;99.46;97693.94;5014576;28;20029;-86
2021/09/27 04:50:44;;;;;;;26.20;9.00;;;;;;;12.15;98.40;97711.25;5016984;28;20030;-85
2021/09/27 04:53:31;;;;;;;21.33;8.82;;;;;;;12.31;97.48;97720.00;5015688;28;20117;-85
2021/09/27 04:56:24;;;;;;;17.17;7.78;;;;;;;12.45;96.91;97717.28;5016103;28;20050;-86
2021/09/27 04:59:15;;;;;;;21.92;7.50;;;;;;;12.62;95.49;97717.00;5015822;28;20094;-86
2021/09/27 05:01:50;;;;;;;26.83;8.73;;;;;;;12.83;94.77;97734.31;5019283;28;20034;-85
2021/09/27 05:04:34;;;;;;;29.10;12.73;;;;;;;13.10;93.32;97737.00;5016813;28;20089;-85
2021/09/27 05:07:37;;;;;;;17.95;8.57;;;;;;;14.49;85.46;97734.94;5013914;28;20453;-88
2021/09/27 05:10:40;;;;;;;25.92;9.32;;;;;;;15.93;76.36;97737.19;5014783;28;20034;-85
2021/09/27 05:13:43;;;;;;;20.38;8.27;;;;;;;17.42;68.71;97747.13;5014031;28;20041;-86
2021/09/27 05:16:39;;;;;;;27.90;8.52;;;;;;;18.39;63.00;97739.34;5015631;28;20025;-85
2021/09/27 05:19:32;;;;;;;32.08;9.18;;;;;;;19.25;59.17;97744.06;5013817;28;20100;-85
2021/09/27 05:21:59;;;;;;;;;;;;;;;20.17;55.59;97731.56;5013499;28;20034;-85
2021/09/27 05:24:51;;;;;;;29.25;8.50;;;;;;;20.36;53.56;97726.06;4998166;28;19921;-86
2021/09/27 05:27:35;;;;;;;22.58;7.95;;;;;;;19.80;55.91;97734.25;5015199;28;20043;-86
2021/09/27 05:30:04;;;;;;;28.10;8.18;;;;;;;19.86;56.58;97744.53;5013636;28;20040;-87
2021/09/27 05:32:49;;;;;;;19.75;8.05;;;;;;;20.03;56.24;97730.16;5014369;28;20030;-86
2021/09/27 05:35:45;;;;;;;20.73;8.90;;;;;;;20.46;55.35;97729.56;5013835;28;20087;-86
2021/09/27 05:38:42;;;;;;;18.40;8.68;;;;;;;20.74;53.81;97741.25;5013477;28;20502;-86
2021/09/27 05:41:31;;;;;;;31.40;11.23;;;;;;;20.23;54.77;97727.38;5016101;28;20575;-86
2021/09/27 05:44:08;;;;;;;26.30;12.15;;;;;;;19.20;57.87;97745.47;5006853;28;20113;-87
2021/09/27 05:46:50;;;;;;;28.83;12.10;;;;;;;19.71;56.13;97728.88;4979254;28;20037;-86
2021/09/27 05:49:24;;;;;;;40.35;14.18;;;;;;;19.90;55.38;97740.50;4979423;28;20026;-86
2021/09/27 05:52:03;;;;;;;30.08;12.73;;;;;;;20.41;53.95;97755.47;4995615;28;20084;-87
2021/09/27 05:54:48;;;;;;;31.23;10.48;;;;;;;20.83;52.75;97740.34;4979233;28;20076;-88
2021/09/27 05:57:36;;;;;;;25.10;9.95;;;;;;;21.85;50.12;97744.31;4995955;28;20111;-86
2021/09/27 06:00:28;;;;;;;38.30;10.77;;;;;;;22.72;47.76;97727.75;4992529;28;20030;-87
2021/09/27 06:03:23;;;;;;;34.42;10.57;;;;;;;23.55;45.96;97728.56;4992306;28;20026;-86
2021/09/27 06:06:00;;;;;;;26.40;11.48;;;;;;;24.02;44.45;97734.13;4961765;28;20050;-86
2021/09/27 06:08:31;;;;;;;32.13;14.73;;;;;;;24.58;43.76;97735.88;4993790;28;20026;-86
2021/09/27 06:11:05;;;;;;;28.65;12.50;;;;;;;24.06;44.22;97725.41;4994662;28;20022;-89
2021/09/27 06:13:33;;;;;;;20.13;11.23;;;;;;;24.56;43.05;97714.13;4981055;28;20049;-86
2021/09/27 06:16:12;;;;;;;23.77;10.23;;;;;;;23.95;44.28;97747.63;4976764;28;20037;-86
2021/09/27 06:18:50;;;;;;;34.90;12.40;;;;;;;24.96;42.77;97748.69;4976896;28;20030;-87
2021/09/27 06:21:31;;;;;;;28.00;12.63;;;;;;;25.38;41.45;97739.16;4992916;28;20113;-87
2021/09/27 06:24:15;;;;;;;25.65;11.20;;;;;;;26.17;40.20;97739.53;4994899;28;20113;-87
2021/09/27 06:27:28;;;;;;;23.10;10.48;;;;;;;26.16;40.02;97735.06;4992765;28;20053;-86
2021/09/27 06:30:12;;;;;;;32.15;9.63;;;;;;;26.70;38.89;97726.53;4940989;28;20095;-87
2021/09/27 06:33:02;;;;;;;24.02;10.10;;;;;;;27.47;37.51;97732.34;4992413;28;20068;-87
2021/09/27 06:35:31;;;;;;;18.65;10.25;;;;;;;27.25;37.66;97699.31;5008988;28;20353;-86
2021/09/27 06:38:02;;;;;;;17.65;9.50;;;;;;;26.81;38.81;97724.19;4978277;28;20506;-88
2021/09/27 06:40:27;;;;;;;17.38;8.98;;;;;;;27.20;37.82;97723.78;4986843;28;20030;-88
2021/09/27 06:42:53;;;;;;;23.23;10.10;;;;;;;27.27;37.59;97707.34;4961402;28;20041;-89
2021/09/27 06:45:19;;;;;;;22.02;10.25;;;;;;;27.51;37.73;97715.25;4992269;28;20022;-88
2021/09/27 06:47:45;;;;;;;28.08;12.13;;;;;;;27.17;37.67;97680.22;4976299;28;20034;-86
2021/09/27 06:50:11;;;;;;;22.50;10.00;;;;;;;27.02;38.56;97717.00;5008990;28;20050;-88
2021/09/27 06:52:37;;;;;;;21.27;8.65;;;;;;;26.78;38.49;97682.50;4976958;28;20622;-88
2021/09/27 06:55:04;;;;;;;21.73;10.02;;;;;;;27.07;38.20;97712.63;4993137;28;20069;-87
2021/09/27 06:57:29;;;;;;;22.80;7.85;;;;;;;25.79;40.24;97711.25;5008489;28;20093;-88
2021/09/27 06:59:55;;;;;;;17.40;7.40;;;;;;;25.22;41.78;97719.09;4992297;28;20097;-87
2021/09/27 07:02:20;;;;;;;22.17;7.45;;;;;;;26.06;39.90;97696.06;4992071;28;20034;-86
2021/09/27 07:04:46;;;;;;;17.15;7.97;;;;;;;26.72;38.88;97686.00;4991776;28;20168;-87
2021/09/27 07:07:12;;;;;;;24.65;7.53;;;;;;;26.16;39.73;97702.16;4992235;28;20026;-86
2021/09/27 07:09:38;;;;;;;18.10;7.75;;;;;;;25.18;41.86;97719.63;4984694;28;20494;-87
2021/09/27 07:12:04;;;;;;;19.48;7.57;;;;;;;24.53;43.46;97717.22;4991797;28;20068;-86
2021/09/27 07:14:30;;;;;;;22.80;7.75;;;;;;;24.60;43.21;97722.84;4975534;28;20022;-87
2021/09/27 07:16:55;;;;;;;17.52;8.23;;;;;;;24.34;43.61;97723.13;4992912;28;20033;-86
2021/09/27 07:19:21;;;;;;;23.45;9.77;;;;;;;24.00;44.80;97736.16;4977764;28;20105;-86
2021/09/27 07:21:47;;;;;;;23.23;8.88;;;;;;;24.54;44.27;97740.84;4991955;28;20030;-86
2021/09/27 07:24:13;;;;;;;24.98;9.10;;;;;;;25.13;42.53;97746.72;4986785;28;20096;-86
2021/09/27 07:26:39;;;;;;;17.50;8.50;;;;;;;25.48;41.74;97732.38;4986875;28;20413;-86
2021/09/27 07:29:05;;;;;;;15.73;8.95;;;;;;;26.17;40.79;97741.41;4998024;28;20100;-87
2021/09/27 07:31:32;;;;;;;17.38;9.10;;;;;;;26.34;40.48;97730.06;4975504;28;20509;-88
2021/09/27 07:34:03;;;;;;;22.85;8.82;;;;;;;27.04;39.17;97723.19;4990306;28;20026;-85
2021/09/27 07:36:29;;;;;;;27.47;8.43;;;;;;;27.55;37.79;97668.97;5001152;28;20064;-89
2021/09/27 07:38:55;;;;;;;21.90;8.38;;;;;;;28.45;35.98;97667.94;4986171;28;20034;-87
2021/09/27 07:41:21;;;;;;;24.17;7.97;;;;;;;28.56;35.82;97688.50;4979770;28;20030;-87
2021/09/27 07:43:46;;;;;;;16.42;8.27;;;;;;;29.72;34.10;97646.00;4995547;28;20097;-88
2021/09/27 07:46:15;;;;;;;18.58;7.43;;;;;;;31.02;32.26;97672.44;4995790;28;20084;-89
2021/09/27 07:48:41;;;;;;;16.85;6.93;;;;;;;31.35;31.42;97654.81;4964337;28;20035;-91
2021/09/27 07:51:07;;;;;;;17.88;6.97;;;;;;;32.61;30.08;97686.72;4980980;28;20142;-89
2021/09/27 07:53:32;;;;;;;18.30;6.88;;;;;;;32.69;29.65;97665.09;4966695;28;20038;-93
2021/09/27 07:55:58;;;;;;;22.92;9.43;;;;;;;32.81;30.05;97664.31;4999195;28;20041;-89
2021/09/27 07:58:24;;;;;;;32.80;19.92;;;;;;;31.95;30.77;97689.25;4996874;28;20034;-88
2021/09/27 08:00:51;;;;;;;36.75;10.20;;;;;;;30.56;32.47;97633.97;4981419;28;20037;-91
2021/09/27 08:03:17;;;;;;;24.70;8.00;;;;;;;29.87;33.65;97699.91;4984115;28;20026;-92
2021/09/27 08:05:43;;;;;;;21.80;7.72;;;;;;;29.44;33.62;97638.78;4970999;28;20129;-91
2021/09/27 08:08:08;;;;;;;24.20;7.47;;;;;;;30.31;33.09;97668.00;4986125;28;20037;-91
2021/09/27 08:11:04;;;;;;;12.05;6.72;;;;;;;31.78;31.23;97697.28;4983582;28;20010;-92
2021/09/27 08:13:29;;;;;;;22.65;7.80;;;;;;;31.22;31.49;97700.00;4983763;28;20030;-91
2021/09/27 08:15:56;;;;;;;14.10;6.60;;;;;;;32.45;30.23;97699.25;4999436;28;20117;-92
2021/09/27 08:18:22;;;;;;;9.10;6.43;;;;;;;32.18;29.44;97639.63;4982992;28;20030;-91
2021/09/27 08:20:58;;;;;;;13.18;6.72;;;;;;;31.15;30.82;97686.22;4981557;28;20030;-89
2021/09/27 08:23:24;;;;;;;33.97;8.25;;;;;;;30.84;31.77;97674.22;4998240;28;20035;-90
2021/09/27 08:25:51;;;;;;;15.93;6.22;;;;;;;31.56;30.46;97690.44;4981954;28;20030;-91
2021/09/27 08:28:19;;;;;;;16.00;7.68;;;;;;;32.72;28.96;97672.94;4983866;28;20485;-93
2021/09/27 08:30:51;;;;;;;12.48;7.10;;;;;;;32.19;29.28;97685.66;4984225;28;20065;-95
2021/09/27 08:33:19;;;;;;;30.85;6.70;;;;;;;32.90;28.79;97676.78;4984825;28;20056;-90
2021/09/27 08:35:49;;;;;;;15.75;5.25;;;;;;;32.27;29.40;97674.28;4985042;28;20031;-91
2021/09/27 08:38:15;;;;;;;11.98;5.18;;;;;;;32.36;28.73;97658.22;4985028;28;20030;-90
2021/09/27 08:40:55;;;;;;;8.02;5.20;;;;;;;32.66;29.09;97686.88;4985086;28;20410;-90
2021/09/27 08:43:27;;;;;;;20.15;5.65;;;;;;;32.50;29.10;97680.00;5002149;28;20027;-92
2021/09/27 08:45:53;;;;;;;9.05;5.82;;;;;;;33.17;28.36;97648.47;5001043;28;20038;-92
2021/09/27 08:48:27;;;;;;;16.33;5.13;;;;;;;33.73;27.21;97650.81;4980189;28;20038;-88
2021/09/27 08:50:53;;;;;;;13.93;5.25;;;;;;;35.22;25.45;97652.03;4985354;28;20006;-93
2021/09/27 08:53:28;;;;;;;8.60;5.57;;;;;;;35.87;25.17;97656.00;4983415;28;20108;-92
2021/09/27 08:56:01;;;;;;;14.05;5.32;;;;;;;37.09;23.51;97653.09;4999281;28;20417;-92
2021/09/27 08:58:32;;;;;;;10.00;4.32;;;;;;;38.03;22.20;97645.13;4981445;28;20026;-91
2021/09/27 09:01:04;;;;;;;10.82;4.45;;;;;;;37.41;22.66;97600.94;4997144;28;20036;-92
2021/09/27 09:04:02;;;;;;;5.13;4.18;;;;;;;37.28;22.51;97592.19;4982055;28;20480;-93
2021/09/27 09:06:34;;;;;;;9.93;4.47;;;;;;;36.32;24.16;97633.63;4973586;28;20046;-92
2021/09/27 09:09:18;;;;;;;9.07;4.20;;;;;;;36.14;24.04;97630.28;5004649;28;20057;-91
2021/09/27 09:11:52;;;;;;;10.70;4.28;;;;;;;36.60;23.56;97623.44;4981902;28;20117;-90
2021/09/27 09:14:30;;;;;;;6.25;3.95;;;;;;;37.24;23.20;97625.38;4997766;28;20027;-87
2021/09/27 09:16:57;;;;;;;9.27;4.03;;;;;;;38.52;22.15;97614.19;4997452;28;20029;-90
2021/09/27 09:19:27;;;;;;;10.05;4.00;;;;;;;39.03;21.68;97614.16;4983661;28;20121;-95
2021/09/27 09:21:57;;;;;;;10.20;4.72;;;;;;;39.31;21.25;97614.81;4984738;28;20172;-95
2021/09/27 09:24:28;;;;;;;9.93;4.07;;;;;;;39.32;20.80;97592.13;4985649;28;20026;-93
2021/09/27 09:26:57;;;;;;;;;;;;;;;39.29;20.96;97603.88;4983276;28;20094;-92
2021/09/27 09:29:27;;;;;;;11.77;4.82;;;;;;;39.71;20.63;97605.66;4999486;28;19916;-92
2021/09/27 09:32:02;;;;;;;8.50;4.20;;;;;;;40.01;20.20;97612.09;4982913;28;20062;-92
2021/09/27 09:34:36;;;;;;;6.55;4.82;;;;;;;38.48;21.58;97591.50;4982378;28;20547;-89
2021/09/27 09:37:12;;;;;;;8.90;3.97;;;;;;;39.23;21.79;97593.78;4981728;28;20541;-92
2021/09/27 09:39:54;;;;;;;10.13;4.53;;;;;;;38.23;21.63;97555.00;4981518;28;20113;-92
2021/09/27 09:42:20;;;;;;;11.93;9.18;;;;;;;37.73;22.49;97591.78;4978969;28;20038;-91
2021/09/27 09:44:50;;;;;;;10.00;5.80;;;;;;;36.77;23.40;97586.00;4994908;28;20380;-89
2021/09/27 09:47:18;;;;;;;13.52;7.32;;;;;;;38.18;21.99;97594.91;4979296;28;20580;-93
2021/09/27 09:50:00;;;;;;;8.80;4.50;;;;;;;39.95;20.79;97573.13;5014472;28;20485;-92
2021/09/27 09:52:50;;;;;;;6.63;4.60;;;;;;;40.58;19.98;97580.03;4997154;28;20025;-92
2021/09/27 09:55:34;;;;;;;7.88;3.97;;;;;;;39.79;20.40;97572.28;4990221;28;20078;-92
2021/09/27 09:58:30;;;;;;;6.97;4.38;;;;;;;37.43;22.15;97573.63;5014275;28;20034;-94
2021/09/27 10:00:59;;;;;;;5.25;4.40;;;;;;;37.05;23.24;97561.78;5012544;28;20026;-94
2021/09/27 10:03:43;;;;;;;14.88;4.80;;;;;;;36.79;23.48;97572.63;4995123;28;20100;-90
2021/09/27 10:06:16;;;;;;;9.88;4.78;;;;;;;35.84;24.03;97563.75;4997330;28;20049;-89
2021/09/27 10:08:54;;;;;;;13.55;6.30;;;;;;;34.87;25.36;97548.38;4980681;28;20034;-92
2021/09/27 10:11:39;;;;;;;11.98;4.70;;;;;;;34.10;25.98;97562.59;5002314;28;20077;-94
2021/09/27 10:14:35;;;;;;;7.70;4.28;;;;;;;32.99;26.80;97570.00;4983888;28;20636;-90
2021/09/27 10:17:29;;;;;;;15.75;4.22;;;;;;;33.42;27.35;97572.53;4983967;28;20064;-92
2021/09/27 10:19:59;;;;;;;8.02;4.22;;;;;;;33.96;25.89;97558.38;5015045;28;20029;-89
2021/09/27 10:22:29;;;;;;;8.65;3.85;;;;;;;34.57;25.26;97552.22;5015615;28;20037;-93
2021/09/27 10:24:58;;;;;;;15.40;5.30;;;;;;;36.18;24.07;97531.16;4981807;28;20022;-92
2021/09/27 10:27:50;;;;;;;8.50;3.85;;;;;;;37.07;22.36;97540.06;4980607;28;20030;-88
2021/09/27 10:30:21;;;;;;;16.60;4.00;;;;;;;34.74;24.55;97528.13;4980609;28;20038;-91
2021/09/27 10:32:56;;;;;;;15.27;4.22;;;;;;;35.59;24.42;97544.72;4981693;28;20030;-91
2021/09/27 10:35:31;;;;;;;11.65;3.63;;;;;;;36.07;23.63;97535.72;4981312;28;20042;-92
2021/09/27 10:38:18;;;;;;;7.90;4.22;;;;;;;37.11;22.07;97505.78;4995736;28;20042;-92
2021/09/27 10:40:47;;;;;;;7.25;3.92;;;;;;;37.73;21.95;97521.94;4980357;28;20065;-91
2021/09/27 10:43:17;;;;;;;12.57;7.50;;;;;;;38.49;21.13;97501.72;4978687;28;20030;-91
2021/09/27 10:45:49;;;;;;;4.43;3.53;;;;;;;38.24;21.49;97504.38;4980596;28;20034;-93
2021/09/27 10:48:16;;;;;;;6.10;3.53;;;;;;;39.59;20.54;97502.25;4998526;28;20088;-90
2021/09/27 10:50:51;;;;;;;10.57;4.20;;;;;;;40.03;19.99;97511.69;5016799;28;20408;-94
2021/09/27 10:53:34;;;;;;;9.20;4.38;;;;;;;39.51;20.69;97474.78;4984812;28;20572;-91
2021/09/27 10:56:12;;;;;;;4.65;3.85;;;;;;;39.62;20.40;97501.69;4999702;28;20030;-93
2021/09/27 10:58:47;;;;;;;10.73;3.90;;;;;;;39.15;20.93;97495.47;5017832;28;20421;-92
2021/09/27 11:01:37;;;;;;;7.32;4.03;;;;;;;39.20;20.67;97499.09;5016933;28;20033;-90
2021/09/27 11:04:06;;;;;;;8.02;3.40;;;;;;;39.47;20.31;97473.69;5015679;28;20120;-90
2021/09/27 11:06:49;;;;;;;9.20;3.95;;;;;;;39.20;20.71;97492.66;5000698;28;20053;-80
2021/09/27 11:09:36;;;;;;;11.25;3.97;;;;;;;39.70;19.94;97492.72;4997513;28;20050;-82
2021/09/27 11:12:15;;;;;;;5.47;3.90;;;;;;;40.20;19.57;97485.34;4998649;28;20049;-79
2021/09/27 11:14:51;;;;;;;5.55;3.50;;;;;;;38.26;21.00;97477.00;4979537;28;20022;-79
2021/09/27 11:17:20;;;;;;;8.60;3.63;;;;;;;39.49;20.48;97477.88;4995204;28;20034;-79
2021/09/27 11:20:00;;;;;;;7.60;3.72;;;;;;;40.69;19.16;97437.72;4995290;28;20457;-79
2021/09/27 11:22:53;;;;;;;8.90;3.85;;;;;;;41.01;18.79;97438.91;5011367;28;20030;-79
2021/09/27 11:25:22;;;;;;;6.20;3.83;;;;;;;40.91;19.26;97461.44;4981562;28;20062;-79
2021/09/27 11:28:25;;;;;;;8.45;3.80;;;;;;;40.44;19.55;97458.28;5014489;28;20034;-79
2021/09/27 11:31:26;;;;;;;12.15;3.67;;;;;;;40.15;20.17;97451.72;5014438;28;20034;-79
2021/09/27 11:33:53;;;;;;;11.18;4.00;;;;;;;39.09;20.95;97460.19;4955160;29;20030;-79
2021/09/27 11:36:33;;;;;;;11.85;3.30;;;;;;;39.40;20.65;97457.16;4983443;28;20057;-79
2021/09/27 11:42:20;;;;;;;;;;;;;;;39.89;20.14;97462.97;4996481;28;20118;-79
2021/09/27 11:44:57;;;;;;;9.48;4.00;;;;;;;38.42;21.27;97452.78;4995625;28;20000;-78
2021/09/27 11:47:41;;;;;;;4.30;3.90;;;;;;;38.09;22.08;97453.16;5003005;28;20081;-79
2021/09/27 11:50:26;;;;;;;11.90;9.95;;;;;;;38.23;21.75;97432.84;4995436;28;20027;-80
2021/09/27 11:53:01;;;;;;;10.82;3.83;;;;;;;38.36;21.74;97456.66;4994515;28;20030;-80
2021/09/27 11:55:39;;;;;;;7.57;3.67;;;;;;;38.40;21.26;97432.63;4987898;28;20069;-78
2021/09/27 11:58:10;;;;;;;7.75;4.05;;;;;;;38.29;21.71;97447.66;5006046;28;20034;-78
2021/09/27 12:00:44;;;;;;;5.15;4.10;;;;;;;37.46;22.79;97443.84;5010089;28;20044;-78
2021/09/27 12:03:24;;;;;;;8.05;3.95;;;;;;;37.52;22.76;97448.34;4979449;28;20033;-78
2021/09/27 12:05:52;;;;;;;8.73;5.22;;;;;;;36.89;23.39;97450.00;5006898;28;20041;-78
2021/09/27 12:08:28;;;;;;;5.53;3.17;;;;;;;36.66;23.28;97453.13;5020555;28;20038;-77
2021/09/27 12:10:59;;;;;;;27.17;4.18;;;;;;;35.27;24.58;97432.28;5004302;28;20034;-77
2021/09/27 12:13:26;;;;;;;9.70;3.90;;;;;;;35.29;24.76;97449.56;5002867;28;20022;-77
2021/09/27 12:16:00;;;;;;;8.20;3.88;;;;;;;35.14;24.84;97421.50;4987099;28;20063;-77
2021/09/27 12:18:52;;;;;;;8.15;3.78;;;;;;;35.62;24.87;97455.13;4999294;28;20030;-76